Time;durP1;ratioP1;P1;durP2;ratioP2;P2;SDS_P1;SDS_P2;PMS_P1;PMS_P2;Temp;Humidity;BMP_temperature;BMP_pressure;BME280_temperature;BME280_humidity;BME280_pressure;Samples;Min_cycle;Max_cycle;Signal;HPM_P1;HPM_P2
2023/12/12 00:01:34;;;;;;;0.40;0.40;;;10.40;71.60;;;;;;5014772;28;20014;-72
2023/12/12 00:04:00;;;;;;;0.70;0.70;;;10.50;71.60;;;;;;5014794;28;20050;-71
2023/12/12 00:06:26;;;;;;;0.90;0.90;;;10.50;71.50;;;;;;5014538;28;20077;-72
2023/12/12 00:08:51;;;;;;;0.70;0.70;;;10.60;71.50;;;;;;5015218;28;20045;-72
2023/12/12 00:11:17;;;;;;;1.73;1.33;;;10.60;71.40;;;;;;5034506;28;20490;-71
2023/12/12 00:13:42;;;;;;;0.52;0.52;;;10.70;71.50;;;;;;5034662;28;20400;-71
2023/12/12 00:16:09;;;;;;;0.50;0.50;;;10.70;71.50;;;;;;5034735;28;20021;-71
2023/12/12 00:18:35;;;;;;;0.73;0.73;;;10.80;71.60;;;;;;5034675;28;20037;-72
2023/12/12 00:21:02;;;;;;;0.50;0.50;;;10.80;71.60;;;;;;5034540;28;20033;-70
2023/12/12 00:23:27;;;;;;;0.40;0.40;;;10.90;71.60;;;;;;5034504;28;20095;-72
2023/12/12 00:25:53;;;;;;;0.75;0.75;;;10.90;71.50;;;;;;5034575;28;20033;-71
2023/12/12 00:28:18;;;;;;;0.57;0.57;;;11.00;71.50;;;;;;5034248;28;20041;-72
2023/12/12 00:30:44;;;;;;;0.65;0.65;;;11.00;71.50;;;;;;5034157;28;20025;-72
2023/12/12 00:33:09;;;;;;;0.50;0.50;;;11.10;71.50;;;;;;5034243;28;20380;-72
2023/12/12 00:35:35;;;;;;;0.50;0.50;;;11.10;71.50;;;;;;5034000;28;20029;-71
2023/12/12 00:38:00;;;;;;;18.73;1.02;;;11.20;71.50;;;;;;5033475;28;20037;-71
2023/12/12 00:40:26;;;;;;;0.40;0.40;;;11.20;71.50;;;;;;5033775;28;20100;-72
2023/12/12 00:42:52;;;;;;;0.57;0.57;;;11.20;71.50;;;;;;5034601;28;20098;-71
2023/12/12 00:45:17;;;;;;;4.57;1.77;;;11.20;71.40;;;;;;5034034;28;20032;-71
2023/12/12 00:47:43;;;;;;;0.40;0.40;;;11.20;71.30;;;;;;5021228;28;20045;-71
2023/12/12 00:50:09;;;;;;;0.80;0.80;;;11.20;71.20;;;;;;5016884;28;20036;-72
2023/12/12 00:52:35;;;;;;;0.50;0.50;;;11.20;71.00;;;;;;5034439;28;20025;-72
2023/12/12 00:55:00;;;;;;;2.15;1.02;;;11.20;71.10;;;;;;5024598;28;20042;-71
2023/12/12 00:57:27;;;;;;;0.90;0.90;;;11.20;71.10;;;;;;5014578;28;20018;-73
2023/12/12 00:59:53;;;;;;;0.40;0.40;;;11.30;71.20;;;;;;5014672;28;20025;-72
2023/12/12 01:02:25;;;;;;;0.60;0.60;;;11.30;71.20;;;;;;5014174;28;20041;-71
2023/12/12 01:04:52;;;;;;;0.40;0.40;;;11.30;71.20;;;;;;5014440;28;20442;-72
2023/12/12 01:07:18;;;;;;;0.50;0.50;;;11.30;71.30;;;;;;5014392;28;20025;-72
2023/12/12 01:09:44;;;;;;;0.50;0.50;;;11.30;71.30;;;;;;5014843;28;20117;-71
2023/12/12 01:12:09;;;;;;;0.80;0.80;;;11.40;71.30;;;;;;5022366;28;20065;-71
2023/12/12 01:14:35;;;;;;;0.50;0.50;;;11.40;71.40;;;;;;5033479;28;20045;-72
2023/12/12 01:17:01;;;;;;;0.50;0.50;;;11.40;71.30;;;;;;5030563;28;20030;-72
2023/12/12 01:19:27;;;;;;;0.50;0.50;;;11.50;71.30;;;;;;5016047;28;20028;-72
2023/12/12 01:21:52;;;;;;;0.50;0.50;;;11.50;71.40;;;;;;5033650;28;20109;-71
2023/12/12 01:24:18;;;;;;;0.52;0.52;;;11.50;71.30;;;;;;5033535;28;20033;-72
2023/12/12 01:26:43;;;;;;;0.60;0.60;;;11.50;71.40;;;;;;5032961;28;20433;-72
2023/12/12 01:29:09;;;;;;;0.50;0.50;;;11.50;71.50;;;;;;5021691;28;20038;-71
2023/12/12 01:31:35;;;;;;;0.70;0.70;;;11.60;71.40;;;;;;5033343;28;20017;-72
2023/12/12 01:34:00;;;;;;;0.50;0.50;;;11.60;71.20;;;;;;5023282;28;20045;-72
2023/12/12 01:36:26;;;;;;;0.50;0.50;;;11.50;71.20;;;;;;5013352;28;20036;-72
2023/12/12 01:38:51;;;;;;;0.50;0.50;;;11.60;71.40;;;;;;5021783;28;20033;-72
2023/12/12 01:41:18;;;;;;;0.40;0.40;;;11.60;71.50;;;;;;5032968;28;20022;-72
2023/12/12 01:43:43;;;;;;;0.70;0.70;;;11.60;71.60;;;;;;5033960;28;20046;-72
2023/12/12 01:46:13;;;;;;;0.50;0.50;;;11.60;71.60;;;;;;5036408;28;20121;-72
2023/12/12 01:48:39;;;;;;;0.50;0.50;;;11.60;71.50;;;;;;5021823;28;20042;-72
2023/12/12 01:51:05;;;;;;;0.50;0.50;;;11.60;71.50;;;;;;5020636;28;20027;-73
2023/12/12 01:53:51;;;;;;;0.50;0.50;;;11.60;71.70;;;;;;5038485;28;20412;-73
2023/12/12 01:56:17;;;;;;;0.45;0.45;;;11.60;71.70;;;;;;5037614;28;20041;-73
2023/12/12 01:58:45;;;;;;;0.50;0.50;;;11.60;71.80;;;;;;5034515;28;20022;-73
2023/12/12 02:01:12;;;;;;;0.50;0.50;;;11.70;71.70;;;;;;5025179;28;20113;-73
2023/12/12 02:03:40;;;;;;;0.50;0.50;;;11.60;71.80;;;;;;5022652;28;20116;-73
2023/12/12 02:06:06;;;;;;;0.63;0.63;;;11.70;71.80;;;;;;5021960;28;20022;-73
2023/12/12 02:08:32;;;;;;;0.50;0.50;;;11.70;71.80;;;;;;5033015;28;20025;-73
2023/12/12 02:10:57;;;;;;;0.40;0.40;;;11.70;71.90;;;;;;5041603;28;20037;-73
2023/12/12 02:13:23;;;;;;;0.70;0.70;;;11.70;71.80;;;;;;5041354;28;20076;-73
2023/12/12 02:15:48;;;;;;;0.60;0.60;;;11.70;71.80;;;;;;5041969;28;20033;-73
2023/12/12 02:18:14;;;;;;;0.52;0.52;;;11.70;71.80;;;;;;5042366;28;20089;-73
2023/12/12 02:20:43;;;;;;;0.40;0.40;;;11.70;71.70;;;;;;5050408;28;20045;-73
2023/12/12 02:23:09;;;;;;;0.60;0.60;;;11.70;71.80;;;;;;5053317;28;20029;-73
2023/12/12 02:25:37;;;;;;;0.73;0.73;;;11.80;71.90;;;;;;5050274;28;20061;-73
2023/12/12 02:28:03;;;;;;;0.50;0.50;;;11.70;71.80;;;;;;5052346;28;20472;-73
2023/12/12 02:30:32;;;;;;;0.40;0.40;;;11.80;71.70;;;;;;5052891;28;20031;-73
2023/12/12 02:32:58;;;;;;;0.50;0.50;;;11.70;71.70;;;;;;5051029;28;20461;-73
2023/12/12 02:35:24;;;;;;;0.70;0.70;;;11.80;71.70;;;;;;5052098;28;20040;-73
2023/12/12 02:37:50;;;;;;;0.68;0.68;;;11.80;71.80;;;;;;5049769;28;20021;-73
2023/12/12 02:40:15;;;;;;;1.27;1.20;;;11.70;71.80;;;;;;5048259;28;20034;-74
2023/12/12 02:42:44;;;;;;;0.40;0.40;;;11.70;71.80;;;;;;5041280;28;20014;-74
2023/12/12 02:45:11;;;;;;;0.60;0.60;;;11.70;71.80;;;;;;5032024;28;20021;-72
2023/12/12 02:47:37;;;;;;;0.30;0.30;;;11.80;71.80;;;;;;5042062;28;20534;-72
2023/12/12 02:50:02;;;;;;;0.40;0.40;;;11.80;71.80;;;;;;5044428;28;20041;-72
2023/12/12 02:52:28;;;;;;;0.40;0.40;;;11.80;71.80;;;;;;5019190;28;20034;-74
2023/12/12 02:54:53;;;;;;;0.43;0.43;;;11.80;71.90;;;;;;5050492;28;20064;-72
2023/12/12 02:57:19;;;;;;;0.57;0.57;;;11.80;71.90;;;;;;5041430;28;20470;-72
2023/12/12 02:59:44;;;;;;;0.47;0.47;;;11.80;71.80;;;;;;5032263;28;20041;-72
2023/12/12 03:02:10;;;;;;;0.40;0.40;;;11.80;71.80;;;;;;5033277;28;20037;-73
2023/12/12 03:04:35;;;;;;;0.40;0.40;;;11.80;71.80;;;;;;5030855;28;20048;-74
2023/12/12 03:07:01;;;;;;;0.40;0.40;;;11.80;71.70;;;;;;5031527;28;20030;-74
2023/12/12 03:09:26;;;;;;;0.50;0.50;;;11.80;71.70;;;;;;5039936;28;20045;-74
2023/12/12 03:11:53;;;;;;;0.50;0.50;;;11.80;71.70;;;;;;5052254;28;20033;-74
2023/12/12 03:14:25;;;;;;;0.40;0.40;;;11.80;71.70;;;;;;5052937;28;20030;-74
2023/12/12 03:16:50;;;;;;;0.40;0.40;;;11.80;71.60;;;;;;5032846;28;20026;-74
2023/12/12 03:19:16;;;;;;;0.40;0.40;;;11.80;71.50;;;;;;5048841;28;20115;-74
2023/12/12 03:21:41;;;;;;;0.40;0.40;;;11.80;71.60;;;;;;5052598;28;20060;-74
2023/12/12 03:24:07;;;;;;;0.40;0.40;;;11.80;71.60;;;;;;5052948;28;20140;-74
2023/12/12 03:26:33;;;;;;;0.50;0.50;;;11.80;71.70;;;;;;5047465;28;20087;-74
2023/12/12 03:28:59;;;;;;;0.47;0.47;;;11.80;71.70;;;;;;5037714;28;20498;-74
2023/12/12 03:31:24;;;;;;;0.30;0.30;;;11.80;71.70;;;;;;5036122;28;20060;-74
2023/12/12 03:33:50;;;;;;;0.50;0.50;;;11.80;71.60;;;;;;5036339;28;20440;-74
2023/12/12 03:36:15;;;;;;;0.40;0.40;;;11.80;71.70;;;;;;5037218;28;20025;-74
2023/12/12 03:38:41;;;;;;;0.35;0.35;;;11.80;71.70;;;;;;5038661;28;20575;-74
2023/12/12 03:41:06;;;;;;;0.65;0.65;;;11.90;71.60;;;;;;5038649;28;20152;-74
2023/12/12 03:43:32;;;;;;;0.43;0.43;;;11.80;71.30;;;;;;5027854;28;20030;-74
2023/12/12 03:45:57;;;;;;;0.40;0.40;;;11.80;71.30;;;;;;5033272;28;20039;-74
2023/12/12 03:48:23;;;;;;;0.50;0.50;;;11.80;71.40;;;;;;5035364;28;20040;-74
2023/12/12 03:50:49;;;;;;;0.30;0.30;;;11.80;71.30;;;;;;5019275;28;20026;-74
2023/12/12 03:53:15;;;;;;;0.43;0.43;;;11.80;71.40;;;;;;5018794;28;20038;-74
2023/12/12 03:55:41;;;;;;;0.40;0.40;;;11.80;71.50;;;;;;5018525;28;20022;-74
2023/12/12 03:58:06;;;;;;;0.50;0.50;;;11.70;71.50;;;;;;5020487;28;20477;-74
2023/12/12 04:00:32;;;;;;;0.50;0.50;;;11.80;71.50;;;;;;5025517;28;20466;-74
2023/12/12 04:02:57;;;;;;;0.60;0.60;;;11.70;71.50;;;;;;5036864;28;20394;-72
2023/12/12 04:05:23;;;;;;;0.98;0.95;;;11.80;71.50;;;;;;5031784;28;20053;-71
2023/12/12 04:07:48;;;;;;;0.55;0.55;;;11.70;71.50;;;;;;5031543;28;20473;-72
2023/12/12 04:10:14;;;;;;;0.70;0.70;;;11.70;71.50;;;;;;5031388;28;20022;-71
2023/12/12 04:12:39;;;;;;;0.68;0.68;;;11.70;71.40;;;;;;5031319;28;20064;-72
2023/12/12 04:15:05;;;;;;;0.60;0.60;;;11.70;71.30;;;;;;5031178;28;20041;-71
2023/12/12 04:17:31;;;;;;;0.50;0.50;;;11.70;71.40;;;;;;5031455;28;20511;-72
2023/12/12 04:19:57;;;;;;;0.40;0.40;;;11.70;71.40;;;;;;5031693;28;20034;-71
2023/12/12 04:22:23;;;;;;;2.60;1.05;;;11.70;71.40;;;;;;5031267;28;20060;-71
2023/12/12 04:24:48;;;;;;;0.75;0.75;;;11.70;71.30;;;;;;5013566;28;20060;-71
2023/12/12 04:27:14;;;;;;;1.10;0.88;;;11.70;71.30;;;;;;5031282;28;20029;-71
2023/12/12 04:29:39;;;;;;;0.50;0.50;;;11.60;71.40;;;;;;5031529;28;20029;-71
2023/12/12 04:32:05;;;;;;;2.25;1.50;;;11.70;71.50;;;;;;5031292;28;20495;-71
2023/12/12 04:34:34;;;;;;;0.40;0.40;;;11.70;71.50;;;;;;5031455;28;20033;-72
2023/12/12 04:37:01;;;;;;;0.50;0.50;;;11.70;71.70;;;;;;5011329;28;20037;-73
2023/12/12 04:39:27;;;;;;;0.40;0.40;;;11.70;71.90;;;;;;5011826;28;20466;-72
2023/12/12 04:41:53;;;;;;;0.50;0.50;;;11.80;72.00;;;;;;5011483;28;20387;-72
2023/12/12 04:44:18;;;;;;;0.50;0.50;;;11.80;72.00;;;;;;5031337;28;20072;-71
2023/12/12 04:46:44;;;;;;;0.40;0.40;;;11.90;72.00;;;;;;5030819;28;20087;-71
2023/12/12 04:49:09;;;;;;;0.50;0.50;;;11.90;72.00;;;;;;5030912;28;20038;-71
2023/12/12 04:51:35;;;;;;;0.40;0.40;;;11.90;72.00;;;;;;5046222;28;20032;-71
2023/12/12 04:54:00;;;;;;;0.40;0.40;;;12.00;72.00;;;;;;5031062;28;20396;-71
2023/12/12 04:56:26;;;;;;;0.43;0.43;;;12.00;72.00;;;;;;5031025;28;20025;-71
2023/12/12 04:58:51;;;;;;;0.50;0.50;;;12.10;71.80;;;;;;5031255;28;20459;-71
2023/12/12 05:01:18;;;;;;;0.40;0.40;;;12.10;71.50;;;;;;5030841;28;20040;-71
2023/12/12 05:03:46;;;;;;;0.40;0.40;;;12.10;71.30;;;;;;5030089;28;20064;-71
2023/12/12 05:06:12;;;;;;;0.57;0.57;;;12.00;71.20;;;;;;5019686;28;20029;-71
2023/12/12 05:08:37;;;;;;;0.70;0.70;;;12.00;71.30;;;;;;5030872;28;20048;-71
2023/12/12 05:11:04;;;;;;;0.50;0.50;;;12.00;71.50;;;;;;5016662;28;20160;-70
2023/12/12 05:13:30;;;;;;;0.52;0.52;;;12.00;71.50;;;;;;5021318;28;20064;-72
2023/12/12 05:15:55;;;;;;;0.40;0.40;;;12.10;71.60;;;;;;5025872;28;20440;-72
2023/12/12 05:18:21;;;;;;;0.40;0.40;;;12.10;71.60;;;;;;5025440;28;20034;-72
2023/12/12 05:20:48;;;;;;;0.40;0.40;;;12.10;71.60;;;;;;5025400;28;20540;-72
2023/12/12 05:23:13;;;;;;;0.40;0.40;;;12.10;71.70;;;;;;5040492;28;20439;-74
2023/12/12 05:25:40;;;;;;;0.43;0.43;;;12.10;71.70;;;;;;5042622;28;20105;-74
2023/12/12 05:28:05;;;;;;;0.43;0.43;;;12.10;71.70;;;;;;5041599;28;20086;-74
2023/12/12 05:30:31;;;;;;;0.50;0.50;;;12.20;71.70;;;;;;5037315;28;20026;-74
2023/12/12 05:32:57;;;;;;;0.50;0.50;;;12.20;71.60;;;;;;5034458;28;20037;-74
2023/12/12 05:35:22;;;;;;;0.40;0.40;;;12.20;71.50;;;;;;5039843;28;20056;-73
2023/12/12 05:37:48;;;;;;;0.40;0.40;;;12.20;71.40;;;;;;5041148;28;20017;-74
2023/12/12 05:40:16;;;;;;;0.50;0.50;;;12.30;71.30;;;;;;5029134;28;20028;-74
2023/12/12 05:42:42;;;;;;;0.57;0.57;;;12.20;71.10;;;;;;5040340;28;20021;-74
2023/12/12 05:45:08;;;;;;;0.50;0.50;;;12.20;71.00;;;;;;5040999;28;20136;-74
2023/12/12 05:47:33;;;;;;;0.50;0.50;;;12.10;71.00;;;;;;5022892;28;20456;-74
2023/12/12 05:49:59;;;;;;;0.40;0.40;;;12.10;71.00;;;;;;5041601;28;20041;-74
2023/12/12 05:52:25;;;;;;;0.40;0.40;;;12.10;71.10;;;;;;5041559;28;20030;-74
2023/12/12 05:54:51;;;;;;;1.17;0.82;;;12.00;71.10;;;;;;5023564;28;20536;-73
2023/12/12 05:57:17;;;;;;;0.70;0.70;;;12.10;71.10;;;;;;5032490;28;20040;-74
2023/12/12 05:59:42;;;;;;;0.63;0.63;;;12.10;71.20;;;;;;5022069;28;20033;-73
2023/12/12 06:02:08;;;;;;;0.50;0.50;;;12.10;71.20;;;;;;5022165;28;20033;-74
2023/12/12 06:04:35;;;;;;;1.20;1.05;;;12.10;71.20;;;;;;5023464;28;20054;-73
2023/12/12 06:07:01;;;;;;;0.40;0.40;;;12.10;71.40;;;;;;5024445;28;20072;-73
2023/12/12 06:09:27;;;;;;;0.50;0.50;;;12.10;71.50;;;;;;5024465;28;20032;-73
2023/12/12 06:11:53;;;;;;;0.52;0.52;;;12.10;71.60;;;;;;5023257;28;20061;-72
2023/12/12 06:14:18;;;;;;;0.60;0.60;;;12.20;71.60;;;;;;5023125;28;20359;-71
2023/12/12 06:16:44;;;;;;;0.50;0.50;;;12.20;71.50;;;;;;5022507;28;20038;-72
2023/12/12 06:19:09;;;;;;;1.58;1.25;;;12.20;71.40;;;;;;5024430;28;20034;-71
2023/12/12 06:21:35;;;;;;;0.40;0.40;;;12.20;71.20;;;;;;5022822;28;20022;-74
2023/12/12 06:24:01;;;;;;;0.60;0.60;;;12.20;71.20;;;;;;5037656;28;20060;-74
2023/12/12 06:26:27;;;;;;;0.45;0.45;;;12.20;71.30;;;;;;5032573;28;20052;-71
2023/12/12 06:28:53;;;;;;;0.57;0.57;;;12.20;71.40;;;;;;5029410;28;20041;-71
2023/12/12 06:31:19;;;;;;;0.45;0.45;;;12.20;71.40;;;;;;5033353;28;20032;-71
2023/12/12 06:33:45;;;;;;;0.60;0.60;;;12.20;71.40;;;;;;5027645;28;20112;-71
2023/12/12 06:36:10;;;;;;;0.75;0.75;;;12.30;71.40;;;;;;5037702;28;20026;-72
2023/12/12 06:38:36;;;;;;;0.50;0.50;;;12.20;71.30;;;;;;5037525;28;20030;-71
2023/12/12 06:41:03;;;;;;;0.40;0.40;;;12.20;71.30;;;;;;5021557;28;20014;-72
2023/12/12 06:43:28;;;;;;;0.60;0.60;;;12.20;71.20;;;;;;5038899;28;20025;-72
2023/12/12 06:45:54;;;;;;;0.88;0.88;;;12.20;71.10;;;;;;5037633;28;20080;-72
2023/12/12 06:48:19;;;;;;;0.50;0.50;;;12.20;71.10;;;;;;5038210;28;20041;-72
2023/12/12 06:50:45;;;;;;;0.50;0.50;;;12.20;71.10;;;;;;5037456;28;20036;-72
2023/12/12 06:53:10;;;;;;;0.47;0.47;;;12.20;71.10;;;;;;5038203;28;20056;-72
2023/12/12 06:55:37;;;;;;;0.50;0.50;;;12.20;71.10;;;;;;5034672;28;20029;-72
2023/12/12 06:58:03;;;;;;;0.40;0.40;;;12.20;71.10;;;;;;5028965;28;20032;-72
2023/12/12 07:00:29;;;;;;;0.98;0.95;;;12.20;71.10;;;;;;5037428;28;20029;-72
2023/12/12 07:02:55;;;;;;;1.67;1.58;;;12.20;71.20;;;;;;5015087;28;20056;-72
2023/12/12 07:05:21;;;;;;;0.50;0.50;;;12.20;71.00;;;;;;5036794;28;20021;-73
2023/12/12 07:07:47;;;;;;;1.25;1.15;;;12.20;71.00;;;;;;5035388;28;20037;-73
2023/12/12 07:10:13;;;;;;;0.70;0.70;;;12.10;71.10;;;;;;5036119;28;20029;-73
2023/12/12 07:12:38;;;;;;;0.77;0.77;;;12.10;71.20;;;;;;5036458;28;20021;-73
2023/12/12 07:15:04;;;;;;;0.43;0.43;;;12.10;71.20;;;;;;5035375;28;20100;-73
2023/12/12 07:17:30;;;;;;;0.75;0.75;;;12.10;71.20;;;;;;5035914;28;20089;-73
2023/12/12 07:19:56;;;;;;;0.70;0.70;;;12.10;71.10;;;;;;5036930;28;20083;-73
2023/12/12 07:22:22;;;;;;;0.60;0.60;;;12.10;71.20;;;;;;5037378;28;20464;-73
2023/12/12 07:24:47;;;;;;;1.27;1.10;;;12.10;71.20;;;;;;5035598;28;20041;-73
2023/12/12 07:27:13;;;;;;;0.65;0.65;;;12.10;71.30;;;;;;5035906;28;20079;-73
2023/12/12 07:29:38;;;;;;;0.70;0.70;;;12.10;71.10;;;;;;5034054;28;20108;-73
2023/12/12 07:32:04;;;;;;;0.40;0.40;;;12.10;71.10;;;;;;5036395;28;20480;-73
2023/12/12 07:34:30;;;;;;;0.55;0.55;;;12.10;71.20;;;;;;5033984;28;20501;-73
2023/12/12 07:36:55;;;;;;;0.45;0.45;;;12.10;71.20;;;;;;5034335;28;20032;-73
2023/12/12 07:39:21;;;;;;;0.47;0.47;;;12.10;71.40;;;;;;5031538;28;20374;-73
2023/12/12 07:41:47;;;;;;;0.50;0.50;;;12.10;71.50;;;;;;5027757;28;20060;-73
2023/12/12 07:44:12;;;;;;;0.90;0.75;;;12.20;71.50;;;;;;5025541;28;20033;-73
2023/12/12 07:46:38;;;;;;;0.80;0.80;;;12.20;71.40;;;;;;5026187;28;20022;-73
2023/12/12 07:49:05;;;;;;;0.40;0.40;;;12.20;71.30;;;;;;5032947;28;20048;-73
2023/12/12 07:51:32;;;;;;;0.88;0.88;;;12.20;71.10;;;;;;5032898;28;20018;-73
2023/12/12 07:53:58;;;;;;;0.40;0.40;;;12.20;70.90;;;;;;5024668;28;20062;-73
2023/12/12 07:56:23;;;;;;;0.60;0.60;;;12.20;70.50;;;;;;5013633;28;20041;-73
2023/12/12 07:58:49;;;;;;;0.60;0.60;;;12.10;70.30;;;;;;5030185;28;20041;-73
2023/12/12 08:01:15;;;;;;;0.50;0.50;;;12.10;70.10;;;;;;5035287;28;20052;-72
2023/12/12 08:03:41;;;;;;;0.47;0.47;;;12.10;69.60;;;;;;5030740;28;20026;-73
2023/12/12 08:06:07;;;;;;;2.08;0.85;;;12.00;69.80;;;;;;5032767;28;20018;-73
2023/12/12 08:08:33;;;;;;;0.57;0.57;;;12.10;70.10;;;;;;5037408;28;20037;-72
2023/12/12 08:11:00;;;;;;;0.50;0.50;;;12.20;70.10;;;;;;5017615;28;20033;-72
2023/12/12 08:13:26;;;;;;;0.80;0.80;;;12.20;70.20;;;;;;5035197;28;20030;-72
2023/12/12 08:15:52;;;;;;;0.93;0.60;;;12.30;70.30;;;;;;5035202;28;20033;-72
2023/12/12 08:18:17;;;;;;;0.57;0.57;;;12.40;70.50;;;;;;5033610;28;20377;-72
2023/12/12 08:20:43;;;;;;;0.40;0.40;;;12.50;70.50;;;;;;5033795;28;20021;-72
2023/12/12 08:23:09;;;;;;;0.40;0.40;;;12.60;70.40;;;;;;5034112;28;20048;-72
2023/12/12 08:25:35;;;;;;;0.85;0.85;;;12.70;70.10;;;;;;5034287;28;20507;-72
2023/12/12 08:28:00;;;;;;;0.43;0.43;;;12.60;69.70;;;;;;5034207;28;20033;-72
2023/12/12 08:30:26;;;;;;;0.60;0.60;;;12.50;69.30;;;;;;5033579;28;20123;-72
2023/12/12 08:32:52;;;;;;;0.50;0.50;;;12.50;69.40;;;;;;5016325;28;20117;-72
2023/12/12 08:35:17;;;;;;;0.60;0.60;;;12.50;69.40;;;;;;5032492;28;20131;-72
2023/12/12 08:37:43;;;;;;;0.85;0.82;;;12.40;69.60;;;;;;5033463;28;20029;-72
2023/12/12 08:40:09;;;;;;;2.95;1.45;;;12.40;69.80;;;;;;5032031;28;20033;-72
2023/12/12 08:42:35;;;;;;;0.45;0.45;;;12.40;70.10;;;;;;5032693;28;20116;-70
2023/12/12 08:45:02;;;;;;;0.47;0.47;;;12.40;70.50;;;;;;5031068;28;20113;-69
2023/12/12 08:47:27;;;;;;;2.05;0.93;;;12.50;70.90;;;;;;5029065;28;20025;-69
2023/12/12 08:49:53;;;;;;;0.85;0.85;;;12.50;71.50;;;;;;5013071;28;20107;-69
2023/12/12 08:52:19;;;;;;;0.50;0.50;;;12.60;71.80;;;;;;5030737;28;20082;-69
2023/12/12 08:54:46;;;;;;;0.43;0.43;;;12.70;71.90;;;;;;5013624;28;20038;-68
2023/12/12 08:57:13;;;;;;;0.50;0.50;;;12.80;71.90;;;;;;5017828;28;20045;-69
2023/12/12 08:59:39;;;;;;;0.55;0.55;;;12.90;72.40;;;;;;5007615;28;20038;-69
2023/12/12 09:02:04;;;;;;;0.50;0.50;;;13.00;72.40;;;;;;5019927;28;20105;-69
2023/12/12 09:04:32;;;;;;;0.50;0.50;;;13.20;72.90;;;;;;5014943;28;20350;-69
2023/12/12 09:06:58;;;;;;;0.40;0.40;;;13.40;73.70;;;;;;5032836;28;20036;-69
2023/12/12 09:09:26;;;;;;;0.50;0.50;;;13.80;74.60;;;;;;5016952;28;20551;-68
2023/12/12 09:11:51;;;;;;;0.50;0.50;;;14.40;75.10;;;;;;5033412;28;20469;-70
2023/12/12 09:14:17;;;;;;;0.60;0.60;;;14.90;74.90;;;;;;5034222;28;20045;-69
2023/12/12 09:16:42;;;;;;;0.50;0.50;;;15.30;74.70;;;;;;5017018;28;20052;-70
2023/12/12 09:19:09;;;;;;;0.60;0.60;;;15.70;74.40;;;;;;5034010;28;20048;-69
2023/12/12 09:21:35;;;;;;;0.60;0.60;;;16.00;74.20;;;;;;5033639;28;20029;-69
2023/12/12 09:24:00;;;;;;;0.50;0.50;;;16.30;73.80;;;;;;5034562;28;20037;-70
2023/12/12 09:26:26;;;;;;;1.75;1.52;;;16.50;72.90;;;;;;5029832;28;20097;-69
2023/12/12 09:28:51;;;;;;;0.45;0.45;;;16.70;72.70;;;;;;4997139;28;20038;-69
2023/12/12 09:31:26;;;;;;;0.50;0.50;;;16.80;73.00;;;;;;5014262;28;20022;-69
2023/12/12 09:33:52;;;;;;;0.50;0.50;;;17.00;73.30;;;;;;5015042;28;20091;-69
2023/12/12 09:36:18;;;;;;;0.60;0.60;;;17.20;73.30;;;;;;5014128;28;20359;-70
2023/12/12 09:38:44;;;;;;;6.03;0.82;;;17.30;72.40;;;;;;5002403;28;20087;-69
2023/12/12 09:41:20;;;;;;;0.50;0.50;;;17.50;71.50;;;;;;5033869;28;20450;-69
2023/12/12 09:43:48;;;;;;;0.35;0.35;;;17.60;71.30;;;;;;5034384;28;20046;-69
2023/12/12 09:46:14;;;;;;;2.17;1.25;;;17.70;71.10;;;;;;5016089;28;20041;-69
2023/12/12 09:48:42;;;;;;;0.50;0.50;;;17.80;71.20;;;;;;5030355;28;20057;-69
2023/12/12 09:51:08;;;;;;;0.45;0.45;;;17.70;69.80;;;;;;5028948;28;20041;-70
2023/12/12 09:53:35;;;;;;;0.50;0.50;;;17.50;68.90;;;;;;5034256;28;20069;-69
2023/12/12 09:56:04;;;;;;;0.40;0.40;;;17.30;68.90;;;;;;5026540;28;20080;-69
2023/12/12 09:58:31;;;;;;;0.40;0.40;;;17.20;69.10;;;;;;5014270;28;20121;-69
2023/12/12 10:00:59;;;;;;;0.55;0.55;;;17.00;69.10;;;;;;5014369;28;20030;-69
2023/12/12 10:03:25;;;;;;;0.77;0.77;;;16.80;69.10;;;;;;5031603;28;20041;-69
2023/12/12 10:05:53;;;;;;;0.40;0.40;;;16.70;69.10;;;;;;5031177;28;20038;-69
2023/12/12 10:08:19;;;;;;;0.50;0.50;;;16.40;68.90;;;;;;5032886;28;20033;-69
2023/12/12 10:10:44;;;;;;;0.57;0.57;;;16.20;68.90;;;;;;5033603;28;20025;-69
2023/12/12 10:13:10;;;;;;;0.40;0.40;;;16.00;69.90;;;;;;5032162;28;20055;-69
2023/12/12 10:15:36;;;;;;;0.40;0.40;;;16.00;70.60;;;;;;5033480;28;20468;-69
2023/12/12 10:18:02;;;;;;;0.50;0.50;;;16.00;70.60;;;;;;5031668;28;20040;-70
2023/12/12 10:20:31;;;;;;;1.00;0.73;;;15.90;70.60;;;;;;5033528;28;20052;-69
2023/12/12 10:22:58;;;;;;;0.80;0.80;;;15.80;70.90;;;;;;5033471;28;20390;-69
2023/12/12 10:25:24;;;;;;;0.65;0.65;;;15.80;71.10;;;;;;5031790;28;20033;-69
2023/12/12 10:27:52;;;;;;;0.50;0.50;;;15.70;71.20;;;;;;5033211;28;20036;-69
2023/12/12 10:30:22;;;;;;;0.50;0.50;;;15.70;71.60;;;;;;5032490;28;20017;-69
2023/12/12 10:32:52;;;;;;;0.73;0.73;;;15.70;71.60;;;;;;5033146;28;20500;-69
2023/12/12 10:35:21;;;;;;;0.40;0.40;;;15.60;71.60;;;;;;5032509;28;20060;-69
2023/12/12 10:37:48;;;;;;;0.40;0.40;;;15.60;71.70;;;;;;5033029;28;20034;-69
2023/12/12 10:40:21;;;;;;;0.50;0.50;;;15.60;71.70;;;;;;5031618;28;20030;-68
2023/12/12 10:42:47;;;;;;;0.50;0.50;;;15.50;72.00;;;;;;5016072;28;20045;-68
2023/12/12 10:45:14;;;;;;;2.72;1.42;;;15.50;72.00;;;;;;5014487;28;20632;-68
2023/12/12 10:47:50;;;;;;;0.50;0.50;;;15.50;71.60;;;;;;5032803;28;20045;-69
2023/12/12 10:50:18;;;;;;;0.50;0.50;;;15.40;71.80;;;;;;5033089;28;20032;-69
2023/12/12 10:52:45;;;;;;;0.60;0.60;;;15.40;72.10;;;;;;5032001;28;20045;-69
2023/12/12 10:55:12;;;;;;;1.05;1.02;;;15.30;72.10;;;;;;5032737;28;20481;-69
2023/12/12 10:57:41;;;;;;;0.50;0.50;;;15.40;72.30;;;;;;5031482;28;20036;-69
2023/12/12 11:00:11;;;;;;;0.50;0.50;;;15.40;72.60;;;;;;5032663;28;20065;-68
2023/12/12 11:02:39;;;;;;;0.80;0.80;;;15.40;72.50;;;;;;5032243;28;20043;-70
2023/12/12 11:05:07;;;;;;;0.40;0.40;;;15.50;72.90;;;;;;5032878;28;20125;-70
2023/12/12 11:07:33;;;;;;;0.60;0.60;;;15.60;72.80;;;;;;5031239;28;20511;-71
2023/12/12 11:09:59;;;;;;;0.50;0.50;;;15.60;72.80;;;;;;5032980;28;20472;-70
2023/12/12 11:12:25;;;;;;;0.60;0.60;;;15.70;72.80;;;;;;5031369;28;20068;-70
2023/12/12 11:14:52;;;;;;;0.40;0.40;;;15.70;72.70;;;;;;5032775;28;20041;-71
2023/12/12 11:17:18;;;;;;;0.60;0.60;;;15.70;72.80;;;;;;5031366;28;20124;-70
2023/12/12 11:19:44;;;;;;;0.88;0.88;;;15.70;72.70;;;;;;5032854;28;20041;-71
2023/12/12 11:22:30;;;;;;;0.40;0.40;;;15.70;72.50;;;;;;5031832;28;20078;-71
2023/12/12 11:25:01;;;;;;;0.40;0.40;;;15.70;72.30;;;;;;5032707;28;20477;-71
2023/12/12 11:27:27;;;;;;;;;;;15.70;72.00;;;;;;5013801;28;20037;-70
2023/12/12 11:29:54;;;;;;;0.40;0.40;;;15.60;72.00;;;;;;5031839;28;20448;-70
2023/12/12 11:32:24;;;;;;;0.50;0.50;;;15.50;71.60;;;;;;5032351;28;20443;-70
2023/12/12 11:34:50;;;;;;;0.40;0.40;;;15.40;71.50;;;;;;5031417;28;20033;-70
2023/12/12 11:37:16;;;;;;;0.50;0.50;;;15.30;71.50;;;;;;5030838;28;20041;-70
2023/12/12 11:39:41;;;;;;;0.40;0.40;;;15.30;71.80;;;;;;5031734;28;20029;-70
2023/12/12 11:42:20;;;;;;;0.70;0.70;;;15.30;71.80;;;;;;5031919;28;20026;-70
2023/12/12 11:44:46;;;;;;;0.40;0.40;;;15.20;71.90;;;;;;5031319;28;20037;-70
2023/12/12 11:47:30;;;;;;;0.70;0.70;;;15.20;71.70;;;;;;5032088;28;20079;-70
2023/12/12 11:50:11;;;;;;;0.50;0.50;;;15.20;71.70;;;;;;5032255;28;20497;-70
2023/12/12 11:52:45;;;;;;;0.50;0.50;;;15.20;71.90;;;;;;5089109;28;20803;-69
2023/12/12 11:55:19;;;;;;;0.55;0.55;;;15.10;71.80;;;;;;5088652;28;20028;-69
2023/12/12 11:57:45;;;;;;;0.40;0.40;;;15.10;72.00;;;;;;5076437;28;20021;-69
2023/12/12 12:00:17;;;;;;;0.70;0.70;;;15.20;72.10;;;;;;5077304;28;20036;-70
2023/12/12 12:02:43;;;;;;;0.40;0.40;;;15.10;71.90;;;;;;5068502;28;20033;-70
2023/12/12 12:05:09;;;;;;;0.40;0.40;;;15.20;72.00;;;;;;5075706;28;20104;-70
2023/12/12 12:07:38;;;;;;;0.50;0.50;;;15.20;72.10;;;;;;5088907;28;20033;-70
2023/12/12 12:10:10;;;;;;;0.50;0.50;;;15.20;72.40;;;;;;5087612;28;20028;-70
2023/12/12 12:12:35;;;;;;;0.35;0.35;;;15.30;72.80;;;;;;5088638;28;20045;-68
2023/12/12 12:15:06;;;;;;;0.50;0.50;;;15.50;72.80;;;;;;5088132;28;20367;-70
2023/12/12 12:17:35;;;;;;;0.60;0.60;;;15.50;72.80;;;;;;5074629;28;20028;-68
2023/12/12 12:20:00;;;;;;;1.73;1.02;;;15.50;72.50;;;;;;5067700;28;20056;-68
2023/12/12 12:22:25;;;;;;;0.40;0.40;;;15.50;72.50;;;;;;5079501;28;20060;-68
2023/12/12 12:24:51;;;;;;;0.47;0.47;;;15.60;72.50;;;;;;5087319;28;20078;-68
2023/12/12 12:27:16;;;;;;;0.57;0.57;;;15.60;72.60;;;;;;5085697;28;20379;-69
2023/12/12 12:29:56;;;;;;;0.40;0.40;;;15.70;72.50;;;;;;5083574;28;20040;-69
2023/12/12 12:32:22;;;;;;;0.40;0.40;;;15.70;72.40;;;;;;5087888;28;20498;-68
2023/12/12 12:34:48;;;;;;;0.55;0.55;;;15.70;72.20;;;;;;5085663;28;20024;-68
2023/12/12 12:37:33;;;;;;;0.40;0.40;;;15.70;72.00;;;;;;5087965;28;20380;-68
2023/12/12 12:39:58;;;;;;;0.50;0.50;;;15.70;71.70;;;;;;5073364;28;20507;-68
2023/12/12 12:42:34;;;;;;;0.70;0.70;;;15.70;71.60;;;;;;5066177;28;20053;-70
2023/12/12 12:45:07;;;;;;;0.40;0.40;;;15.60;71.50;;;;;;5066661;28;20040;-68